Gokay K — TCHF — position and weather

sailwx.info

Track history (hours):
 
Tides and Currents Weather Stations Pressure Air Temp Water Temp Dewpoint Dewpoint Depression Visibility Wind Speed Wind Dir Waves Ship Positions

Gokay K

Last reported at 2014-Sep-17 19:24 UTC. Time now 2014-Sep-19 13:52 UTC.
Position N 40°26' E 029°02'.

; draft 6 m.

Type: Cargo ship. MMSI: 271000029.

Date/timePositionNaut miles runAvg speedWind from/ knotsBaromVisibWave heightAir tempDewpointWater temp
2014-Sep-17 19:24N 40°26' E 029°02'14 6.4
2014-Sep-17 17:16N 40°36' E 028°49'710.0
2014-Sep-17 16:32N 40°40' E 028°56'9 9.5
2014-Sep-17 15:33N 40°43' E 029°08'10 9.9
2014-Sep-17 14:33N 40°45' E 029°21'6 0.2
2014-Sep-16 01:28N 40°46' E 029°29'0 0.1
2014-Sep-15 22:33N 40°46' E 029°29'7 7.1
2014-Sep-15 21:33N 40°44' E 029°20'9 8.9
2014-Sep-15 20:33N 40°47' E 029°09'9 9.2
2014-Sep-15 19:33N 40°52' E 028°58'6 6.4
2014-Sep-15 18:33N 40°58' E 028°56'  
Track history (hours):
 
Tides and Currents Weather Stations Pressure Air Temp Water Temp Dewpoint Dewpoint Depression Visibility Wind Speed Wind Dir Waves Ship Positions

Gokay K

Last reported at 2014-Sep-17 19:24 UTC. Time now 2014-Sep-19 13:52 UTC.
Position N 40°26' E 029°02'.

; draft 6 m.

Type: Cargo ship. MMSI: 271000029.

Date/timePositionNaut miles runAvg speedWind from/ knotsBaromVisibWave heightAir tempDewpointWater temp
2014-Sep-17 19:24N 40°26' E 029°02'14 6.4
2014-Sep-17 17:16N 40°36' E 028°49'710.0
2014-Sep-17 16:32N 40°40' E 028°56'9 9.5
2014-Sep-17 15:33N 40°43' E 029°08'10 9.9
2014-Sep-17 14:33N 40°45' E 029°21'6 0.2
2014-Sep-16 01:28N 40°46' E 029°29'0 0.1
2014-Sep-15 22:33N 40°46' E 029°29'7 7.1
2014-Sep-15 21:33N 40°44' E 029°20'9 8.9
2014-Sep-15 20:33N 40°47' E 029°09'9 9.2
2014-Sep-15 19:33N 40°52' E 028°58'6 6.4
2014-Sep-15 18:33N 40°58' E 028°56'  

Dump ship's entire track history